sensor_id;sensor_type;location;lat;lon;timestamp;P1;durP1;ratioP1;P2;durP2;ratioP2
60169;SDS011;46042;49.444;6.862;2023-04-28T00:01:44;5.88;;;3.58;;
60169;SDS011;46042;49.444;6.862;2023-04-28T00:04:11;7.70;;;4.00;;
60169;SDS011;46042;49.444;6.862;2023-04-28T00:06:38;9.70;;;3.75;;
60169;SDS011;46042;49.444;6.862;2023-04-28T00:09:06;8.32;;;3.63;;
60169;SDS011;46042;49.444;6.862;2023-04-28T00:11:36;5.15;;;3.38;;
60169;SDS011;46042;49.444;6.862;2023-04-28T00:14:04;5.85;;;3.40;;
60169;SDS011;46042;49.444;6.862;2023-04-28T00:16:31;4.82;;;3.83;;
60169;SDS011;46042;49.444;6.862;2023-04-28T00:18:57;5.63;;;3.58;;
60169;SDS011;46042;49.444;6.862;2023-04-28T00:21:24;5.28;;;3.42;;
60169;SDS011;46042;49.444;6.862;2023-04-28T00:23:51;6.22;;;3.28;;
60169;SDS011;46042;49.444;6.862;2023-04-28T00:26:17;5.53;;;3.30;;
60169;SDS011;46042;49.444;6.862;2023-04-28T00:28:44;5.70;;;3.03;;
60169;SDS011;46042;49.444;6.862;2023-04-28T00:31:12;7.55;;;3.45;;
60169;SDS011;46042;49.444;6.862;2023-04-28T00:33:41;6.22;;;3.25;;
60169;SDS011;46042;49.444;6.862;2023-04-28T00:36:09;5.72;;;3.20;;
60169;SDS011;46042;49.444;6.862;2023-04-28T00:38:36;4.22;;;3.15;;
60169;SDS011;46042;49.444;6.862;2023-04-28T00:41:03;5.78;;;3.50;;
60169;SDS011;46042;49.444;6.862;2023-04-28T00:43:30;4.93;;;2.95;;
60169;SDS011;46042;49.444;6.862;2023-04-28T00:45:58;4.72;;;3.22;;
60169;SDS011;46042;49.444;6.862;2023-04-28T00:48:25;5.55;;;3.05;;
60169;SDS011;46042;49.444;6.862;2023-04-28T00:50:51;5.38;;;3.47;;
60169;SDS011;46042;49.444;6.862;2023-04-28T00:53:18;7.40;;;4.38;;
60169;SDS011;46042;49.444;6.862;2023-04-28T00:55:45;6.30;;;4.10;;
60169;SDS011;46042;49.444;6.862;2023-04-28T00:58:13;5.90;;;4.18;;
60169;SDS011;46042;49.444;6.862;2023-04-28T01:00:40;12.35;;;5.13;;
60169;SDS011;46042;49.444;6.862;2023-04-28T01:03:06;10.30;;;6.35;;
60169;SDS011;46042;49.444;6.862;2023-04-28T01:05:33;11.80;;;7.15;;
60169;SDS011;46042;49.444;6.862;2023-04-28T01:08:02;12.63;;;7.40;;
60169;SDS011;46042;49.444;6.862;2023-04-28T01:10:28;7.72;;;6.05;;
60169;SDS011;46042;49.444;6.862;2023-04-28T01:12:55;12.18;;;6.57;;
60169;SDS011;46042;49.444;6.862;2023-04-28T01:15:21;9.18;;;6.63;;
60169;SDS011;46042;49.444;6.862;2023-04-28T01:17:48;8.32;;;6.65;;
60169;SDS011;46042;49.444;6.862;2023-04-28T01:20:15;13.40;;;7.03;;
60169;SDS011;46042;49.444;6.862;2023-04-28T01:22:41;13.23;;;7.60;;
60169;SDS011;46042;49.444;6.862;2023-04-28T01:25:08;10.35;;;6.82;;
60169;SDS011;46042;49.444;6.862;2023-04-28T01:27:35;8.93;;;6.97;;
60169;SDS011;46042;49.444;6.862;2023-04-28T01:30:01;9.80;;;7.22;;
60169;SDS011;46042;49.444;6.862;2023-04-28T01:32:28;11.93;;;8.40;;
60169;SDS011;46042;49.444;6.862;2023-04-28T01:34:55;12.23;;;7.32;;
60169;SDS011;46042;49.444;6.862;2023-04-28T01:37:22;9.73;;;7.57;;
60169;SDS011;46042;49.444;6.862;2023-04-28T01:39:49;11.35;;;7.55;;
60169;SDS011;46042;49.444;6.862;2023-04-28T01:42:17;11.50;;;7.43;;
60169;SDS011;46042;49.444;6.862;2023-04-28T01:44:44;11.88;;;6.50;;
60169;SDS011;46042;49.444;6.862;2023-04-28T01:47:10;9.63;;;6.47;;
60169;SDS011;46042;49.444;6.862;2023-04-28T01:49:37;9.60;;;6.65;;
60169;SDS011;46042;49.444;6.862;2023-04-28T01:52:03;9.93;;;6.57;;
60169;SDS011;46042;49.444;6.862;2023-04-28T01:54:30;10.18;;;6.13;;
60169;SDS011;46042;49.444;6.862;2023-04-28T01:56:57;12.27;;;6.00;;
60169;SDS011;46042;49.444;6.862;2023-04-28T01:59:23;8.55;;;6.03;;
60169;SDS011;46042;49.444;6.862;2023-04-28T02:01:50;13.90;;;5.97;;
60169;SDS011;46042;49.444;6.862;2023-04-28T02:04:17;8.00;;;4.38;;
60169;SDS011;46042;49.444;6.862;2023-04-28T02:06:44;5.85;;;3.65;;
60169;SDS011;46042;49.444;6.862;2023-04-28T02:09:11;6.53;;;3.90;;
60169;SDS011;46042;49.444;6.862;2023-04-28T02:11:37;7.85;;;4.38;;
60169;SDS011;46042;49.444;6.862;2023-04-28T02:14:04;6.28;;;3.63;;
60169;SDS011;46042;49.444;6.862;2023-04-28T02:16:31;8.10;;;4.50;;
60169;SDS011;46042;49.444;6.862;2023-04-28T02:18:59;8.93;;;4.25;;
60169;SDS011;46042;49.444;6.862;2023-04-28T02:21:25;8.05;;;4.78;;
60169;SDS011;46042;49.444;6.862;2023-04-28T02:23:53;6.90;;;3.97;;
60169;SDS011;46042;49.444;6.862;2023-04-28T02:26:19;5.00;;;3.72;;
60169;SDS011;46042;49.444;6.862;2023-04-28T02:28:46;6.43;;;3.95;;
60169;SDS011;46042;49.444;6.862;2023-04-28T02:31:14;4.50;;;3.40;;
60169;SDS011;46042;49.444;6.862;2023-04-28T02:33:41;10.40;;;4.20;;
60169;SDS011;46042;49.444;6.862;2023-04-28T02:36:08;11.48;;;3.47;;
60169;SDS011;46042;49.444;6.862;2023-04-28T02:38:35;5.90;;;3.70;;
60169;SDS011;46042;49.444;6.862;2023-04-28T02:41:04;5.40;;;3.75;;
60169;SDS011;46042;49.444;6.862;2023-04-28T02:43:32;6.60;;;3.83;;
60169;SDS011;46042;49.444;6.862;2023-04-28T02:46:01;5.68;;;3.90;;
60169;SDS011;46042;49.444;6.862;2023-04-28T02:48:29;5.78;;;3.20;;
60169;SDS011;46042;49.444;6.862;2023-04-28T02:50:56;5.25;;;3.35;;
60169;SDS011;46042;49.444;6.862;2023-04-28T02:53:22;6.45;;;3.58;;
60169;SDS011;46042;49.444;6.862;2023-04-28T02:55:49;6.28;;;3.35;;
60169;SDS011;46042;49.444;6.862;2023-04-28T02:58:15;7.95;;;3.30;;
60169;SDS011;46042;49.444;6.862;2023-04-28T03:00:43;6.55;;;3.92;;
60169;SDS011;46042;49.444;6.862;2023-04-28T03:03:11;11.60;;;3.70;;
60169;SDS011;46042;49.444;6.862;2023-04-28T03:05:38;5.22;;;3.53;;
60169;SDS011;46042;49.444;6.862;2023-04-28T03:08:05;6.63;;;3.67;;
60169;SDS011;46042;49.444;6.862;2023-04-28T03:10:32;4.93;;;3.28;;
60169;SDS011;46042;49.444;6.862;2023-04-28T03:12:59;5.80;;;3.85;;
60169;SDS011;46042;49.444;6.862;2023-04-28T03:15:25;6.22;;;3.80;;
60169;SDS011;46042;49.444;6.862;2023-04-28T03:17:52;6.25;;;3.90;;
60169;SDS011;46042;49.444;6.862;2023-04-28T03:20:19;5.22;;;4.03;;
60169;SDS011;46042;49.444;6.862;2023-04-28T03:22:46;6.63;;;5.00;;
60169;SDS011;46042;49.444;6.862;2023-04-28T03:25:12;8.38;;;4.50;;
60169;SDS011;46042;49.444;6.862;2023-04-28T03:27:39;5.28;;;3.67;;
60169;SDS011;46042;49.444;6.862;2023-04-28T03:30:06;6.20;;;3.60;;
60169;SDS011;46042;49.444;6.862;2023-04-28T03:32:33;5.32;;;3.92;;
60169;SDS011;46042;49.444;6.862;2023-04-28T03:35:04;6.03;;;4.20;;
60169;SDS011;46042;49.444;6.862;2023-04-28T03:37:31;5.72;;;3.80;;
60169;SDS011;46042;49.444;6.862;2023-04-28T03:39:58;5.55;;;3.88;;
60169;SDS011;46042;49.444;6.862;2023-04-28T03:42:24;4.53;;;3.72;;
60169;SDS011;46042;49.444;6.862;2023-04-28T03:44:51;5.90;;;3.35;;
60169;SDS011;46042;49.444;6.862;2023-04-28T03:47:18;5.10;;;3.58;;
60169;SDS011;46042;49.444;6.862;2023-04-28T03:49:44;5.28;;;3.92;;
60169;SDS011;46042;49.444;6.862;2023-04-28T03:52:11;6.43;;;4.15;;
60169;SDS011;46042;49.444;6.862;2023-04-28T03:54:38;5.35;;;3.72;;
60169;SDS011;46042;49.444;6.862;2023-04-28T03:57:06;6.20;;;4.00;;
60169;SDS011;46042;49.444;6.862;2023-04-28T03:59:33;9.20;;;4.00;;
60169;SDS011;46042;49.444;6.862;2023-04-28T04:01:59;6.85;;;4.43;;
60169;SDS011;46042;49.444;6.862;2023-04-28T04:04:26;10.88;;;4.65;;
60169;SDS011;46042;49.444;6.862;2023-04-28T04:06:54;5.90;;;3.88;;
60169;SDS011;46042;49.444;6.862;2023-04-28T04:09:20;4.15;;;3.25;;
60169;SDS011;46042;49.444;6.862;2023-04-28T04:11:47;6.00;;;3.65;;
60169;SDS011;46042;49.444;6.862;2023-04-28T04:14:14;5.07;;;3.38;;
60169;SDS011;46042;49.444;6.862;2023-04-28T04:16:42;8.73;;;3.60;;
60169;SDS011;46042;49.444;6.862;2023-04-28T04:19:08;5.25;;;3.83;;
60169;SDS011;46042;49.444;6.862;2023-04-28T04:21:35;6.38;;;3.50;;
60169;SDS011;46042;49.444;6.862;2023-04-28T04:24:02;5.32;;;3.55;;
60169;SDS011;46042;49.444;6.862;2023-04-28T04:26:28;9.23;;;3.75;;
60169;SDS011;46042;49.444;6.862;2023-04-28T04:28:55;5.13;;;3.33;;
60169;SDS011;46042;49.444;6.862;2023-04-28T04:31:22;5.90;;;4.13;;
60169;SDS011;46042;49.444;6.862;2023-04-28T04:33:49;4.35;;;3.40;;
60169;SDS011;46042;49.444;6.862;2023-04-28T04:36:15;5.88;;;4.20;;
60169;SDS011;46042;49.444;6.862;2023-04-28T04:38:42;5.95;;;4.20;;
60169;SDS011;46042;49.444;6.862;2023-04-28T04:41:09;4.75;;;3.90;;
60169;SDS011;46042;49.444;6.862;2023-04-28T04:43:36;6.20;;;3.72;;
60169;SDS011;46042;49.444;6.862;2023-04-28T04:46:02;5.10;;;3.78;;
60169;SDS011;46042;49.444;6.862;2023-04-28T04:48:29;6.82;;;3.80;;
60169;SDS011;46042;49.444;6.862;2023-04-28T04:50:56;5.55;;;4.13;;
60169;SDS011;46042;49.444;6.862;2023-04-28T04:53:23;6.82;;;3.90;;
60169;SDS011;46042;49.444;6.862;2023-04-28T04:55:49;6.47;;;4.50;;
60169;SDS011;46042;49.444;6.862;2023-04-28T04:58:16;10.25;;;6.30;;
60169;SDS011;46042;49.444;6.862;2023-04-28T05:00:43;8.60;;;4.80;;
60169;SDS011;46042;49.444;6.862;2023-04-28T05:03:09;7.55;;;4.53;;
60169;SDS011;46042;49.444;6.862;2023-04-28T05:05:37;11.43;;;4.60;;
60169;SDS011;46042;49.444;6.862;2023-04-28T05:08:05;5.57;;;4.22;;
60169;SDS011;46042;49.444;6.862;2023-04-28T05:10:31;6.97;;;4.55;;
60169;SDS011;46042;49.444;6.862;2023-04-28T05:12:59;6.75;;;4.85;;
60169;SDS011;46042;49.444;6.862;2023-04-28T05:15:25;7.35;;;4.65;;
60169;SDS011;46042;49.444;6.862;2023-04-28T05:17:52;9.18;;;4.60;;
60169;SDS011;46042;49.444;6.862;2023-04-28T05:20:19;7.00;;;4.75;;
60169;SDS011;46042;49.444;6.862;2023-04-28T05:22:46;7.68;;;4.15;;
60169;SDS011;46042;49.444;6.862;2023-04-28T05:25:12;6.32;;;4.20;;
60169;SDS011;46042;49.444;6.862;2023-04-28T05:27:39;8.82;;;4.70;;
60169;SDS011;46042;49.444;6.862;2023-04-28T05:30:06;8.13;;;4.38;;
60169;SDS011;46042;49.444;6.862;2023-04-28T05:32:34;6.03;;;4.68;;
60169;SDS011;46042;49.444;6.862;2023-04-28T05:35:02;6.13;;;3.80;;
60169;SDS011;46042;49.444;6.862;2023-04-28T05:37:28;6.70;;;4.32;;
60169;SDS011;46042;49.444;6.862;2023-04-28T05:39:55;6.55;;;4.53;;
60169;SDS011;46042;49.444;6.862;2023-04-28T05:42:22;7.18;;;4.47;;
60169;SDS011;46042;49.444;6.862;2023-04-28T05:44:48;5.88;;;4.22;;
60169;SDS011;46042;49.444;6.862;2023-04-28T05:47:15;5.35;;;4.13;;
60169;SDS011;46042;49.444;6.862;2023-04-28T05:49:42;5.97;;;4.05;;
60169;SDS011;46042;49.444;6.862;2023-04-28T05:52:08;5.57;;;4.32;;
60169;SDS011;46042;49.444;6.862;2023-04-28T05:54:35;5.13;;;3.70;;
60169;SDS011;46042;49.444;6.862;2023-04-28T05:57:02;5.63;;;3.90;;
60169;SDS011;46042;49.444;6.862;2023-04-28T05:59:29;14.10;;;4.30;;
60169;SDS011;46042;49.444;6.862;2023-04-28T06:01:56;8.13;;;4.70;;
60169;SDS011;46042;49.444;6.862;2023-04-28T06:04:23;5.30;;;4.10;;
60169;SDS011;46042;49.444;6.862;2023-04-28T06:06:51;6.45;;;4.65;;
60169;SDS011;46042;49.444;6.862;2023-04-28T06:09:19;5.68;;;4.10;;
60169;SDS011;46042;49.444;6.862;2023-04-28T06:11:45;5.68;;;3.97;;
60169;SDS011;46042;49.444;6.862;2023-04-28T06:14:12;6.55;;;4.43;;
60169;SDS011;46042;49.444;6.862;2023-04-28T06:16:39;8.63;;;4.63;;
60169;SDS011;46042;49.444;6.862;2023-04-28T06:19:06;6.70;;;4.70;;
60169;SDS011;46042;49.444;6.862;2023-04-28T06:21:32;8.88;;;4.82;;
60169;SDS011;46042;49.444;6.862;2023-04-28T06:23:59;7.75;;;4.82;;
60169;SDS011;46042;49.444;6.862;2023-04-28T06:26:27;6.05;;;4.50;;
60169;SDS011;46042;49.444;6.862;2023-04-28T06:28:54;6.95;;;4.45;;
60169;SDS011;46042;49.444;6.862;2023-04-28T06:31:21;5.95;;;4.38;;
60169;SDS011;46042;49.444;6.862;2023-04-28T06:33:48;6.35;;;4.55;;
60169;SDS011;46042;49.444;6.862;2023-04-28T06:36:15;6.20;;;4.30;;
60169;SDS011;46042;49.444;6.862;2023-04-28T06:38:43;6.65;;;4.43;;
60169;SDS011;46042;49.444;6.862;2023-04-28T06:41:11;6.32;;;4.68;;
60169;SDS011;46042;49.444;6.862;2023-04-28T06:43:38;9.07;;;5.57;;
60169;SDS011;46042;49.444;6.862;2023-04-28T06:46:04;5.82;;;4.05;;
60169;SDS011;46042;49.444;6.862;2023-04-28T06:48:32;11.60;;;4.43;;
60169;SDS011;46042;49.444;6.862;2023-04-28T06:50:59;6.10;;;3.60;;
60169;SDS011;46042;49.444;6.862;2023-04-28T06:53:26;6.75;;;3.75;;
60169;SDS011;46042;49.444;6.862;2023-04-28T06:55:54;4.53;;;3.42;;
60169;SDS011;46042;49.444;6.862;2023-04-28T06:58:21;6.10;;;4.55;;
60169;SDS011;46042;49.444;6.862;2023-04-28T07:00:48;6.03;;;4.38;;
60169;SDS011;46042;49.444;6.862;2023-04-28T07:03:16;5.45;;;3.88;;
60169;SDS011;46042;49.444;6.862;2023-04-28T07:05:43;6.43;;;3.63;;
60169;SDS011;46042;49.444;6.862;2023-04-28T07:08:10;4.90;;;3.60;;
60169;SDS011;46042;49.444;6.862;2023-04-28T07:10:38;7.65;;;4.35;;
60169;SDS011;46042;49.444;6.862;2023-04-28T07:13:12;5.75;;;3.90;;
60169;SDS011;46042;49.444;6.862;2023-04-28T07:18:10;4.75;;;3.58;;
60169;SDS011;46042;49.444;6.862;2023-04-28T07:20:41;4.63;;;3.47;;
60169;SDS011;46042;49.444;6.862;2023-04-28T07:23:08;5.03;;;3.50;;
60169;SDS011;46042;49.444;6.862;2023-04-28T07:25:52;7.10;;;3.83;;
60169;SDS011;46042;49.444;6.862;2023-04-28T07:28:43;6.05;;;3.80;;
60169;SDS011;46042;49.444;6.862;2023-04-28T07:31:23;6.15;;;4.32;;
60169;SDS011;46042;49.444;6.862;2023-04-28T07:34:05;4.97;;;3.72;;
60169;SDS011;46042;49.444;6.862;2023-04-28T07:36:49;5.75;;;4.03;;
60169;SDS011;46042;49.444;6.862;2023-04-28T07:39:36;5.53;;;3.75;;
60169;SDS011;46042;49.444;6.862;2023-04-28T07:42:14;5.32;;;4.20;;
60169;SDS011;46042;49.444;6.862;2023-04-28T07:44:53;5.70;;;3.78;;
60169;SDS011;46042;49.444;6.862;2023-04-28T07:47:55;5.55;;;4.10;;
60169;SDS011;46042;49.444;6.862;2023-04-28T07:50:29;9.75;;;4.13;;
60169;SDS011;46042;49.444;6.862;2023-04-28T07:53:40;5.78;;;4.15;;
60169;SDS011;46042;49.444;6.862;2023-04-28T07:56:18;6.22;;;4.20;;
60169;SDS011;46042;49.444;6.862;2023-04-28T07:59:20;5.15;;;3.83;;
60169;SDS011;46042;49.444;6.862;2023-04-28T08:02:25;6.15;;;3.90;;
60169;SDS011;46042;49.444;6.862;2023-04-28T08:05:17;6.07;;;4.00;;
60169;SDS011;46042;49.444;6.862;2023-04-28T08:08:01;7.07;;;4.40;;
60169;SDS011;46042;49.444;6.862;2023-04-28T08:10:44;6.05;;;3.72;;
60169;SDS011;46042;49.444;6.862;2023-04-28T08:13:20;5.80;;;3.95;;
60169;SDS011;46042;49.444;6.862;2023-04-28T08:16:05;4.72;;;3.50;;
60169;SDS011;46042;49.444;6.862;2023-04-28T08:18:41;4.43;;;3.65;;
60169;SDS011;46042;49.444;6.862;2023-04-28T08:21:14;5.18;;;3.83;;
60169;SDS011;46042;49.444;6.862;2023-04-28T08:23:55;6.10;;;4.35;;
60169;SDS011;46042;49.444;6.862;2023-04-28T08:26:30;6.18;;;4.45;;
60169;SDS011;46042;49.444;6.862;2023-04-28T08:32:50;6.38;;;3.92;;
60169;SDS011;46042;49.444;6.862;2023-04-28T08:35:57;8.73;;;5.32;;
60169;SDS011;46042;49.444;6.862;2023-04-28T08:39:39;7.80;;;5.50;;
60169;SDS011;46042;49.444;6.862;2023-04-28T08:43:13;10.85;;;7.63;;
60169;SDS011;46042;49.444;6.862;2023-04-28T08:50:22;8.02;;;5.68;;
60169;SDS011;46042;49.444;6.862;2023-04-28T08:52:51;8.82;;;5.57;;
60169;SDS011;46042;49.444;6.862;2023-04-28T08:55:22;6.75;;;5.45;;
60169;SDS011;46042;49.444;6.862;2023-04-28T08:57:50;7.00;;;4.95;;
60169;SDS011;46042;49.444;6.862;2023-04-28T09:00:17;8.95;;;5.68;;
60169;SDS011;46042;49.444;6.862;2023-04-28T09:02:44;9.82;;;5.57;;
60169;SDS011;46042;49.444;6.862;2023-04-28T09:05:12;11.48;;;5.65;;
60169;SDS011;46042;49.444;6.862;2023-04-28T09:07:39;6.90;;;5.13;;
60169;SDS011;46042;49.444;6.862;2023-04-28T09:10:22;7.13;;;4.70;;
60169;SDS011;46042;49.444;6.862;2023-04-28T09:12:52;5.63;;;4.15;;
60169;SDS011;46042;49.444;6.862;2023-04-28T09:15:29;7.70;;;4.38;;
60169;SDS011;46042;49.444;6.862;2023-04-28T09:18:04;6.28;;;3.80;;
60169;SDS011;46042;49.444;6.862;2023-04-28T09:20:39;7.88;;;4.22;;
60169;SDS011;46042;49.444;6.862;2023-04-28T09:23:15;4.68;;;2.75;;
60169;SDS011;46042;49.444;6.862;2023-04-28T09:25:57;3.80;;;2.70;;
60169;SDS011;46042;49.444;6.862;2023-04-28T09:28:34;6.00;;;2.60;;
60169;SDS011;46042;49.444;6.862;2023-04-28T09:31:02;3.67;;;2.17;;
60169;SDS011;46042;49.444;6.862;2023-04-28T09:33:33;6.00;;;2.05;;
60169;SDS011;46042;49.444;6.862;2023-04-28T09:36:02;3.70;;;2.20;;
60169;SDS011;46042;49.444;6.862;2023-04-28T09:38:41;3.40;;;2.03;;
60169;SDS011;46042;49.444;6.862;2023-04-28T09:41:09;9.90;;;1.85;;
60169;SDS011;46042;49.444;6.862;2023-04-28T09:43:52;6.53;;;1.60;;
60169;SDS011;46042;49.444;6.862;2023-04-28T09:46:27;3.05;;;1.55;;
60169;SDS011;46042;49.444;6.862;2023-04-28T09:48:54;1.73;;;1.58;;
60169;SDS011;46042;49.444;6.862;2023-04-28T09:51:28;3.40;;;1.67;;
60169;SDS011;46042;49.444;6.862;2023-04-28T09:53:55;6.25;;;3.13;;
60169;SDS011;46042;49.444;6.862;2023-04-28T09:56:26;6.53;;;4.55;;
60169;SDS011;46042;49.444;6.862;2023-04-28T09:58:57;5.32;;;2.75;;
60169;SDS011;46042;49.444;6.862;2023-04-28T10:01:36;4.38;;;2.15;;
60169;SDS011;46042;49.444;6.862;2023-04-28T10:04:07;2.05;;;1.80;;
60169;SDS011;46042;49.444;6.862;2023-04-28T10:06:38;2.63;;;1.80;;
60169;SDS011;46042;49.444;6.862;2023-04-28T10:09:12;4.00;;;2.53;;
60169;SDS011;46042;49.444;6.862;2023-04-28T10:11:40;4.03;;;2.65;;
60169;SDS011;46042;49.444;6.862;2023-04-28T10:14:07;2.97;;;2.35;;
60169;SDS011;46042;49.444;6.862;2023-04-28T10:16:42;5.45;;;2.70;;
60169;SDS011;46042;49.444;6.862;2023-04-28T10:19:09;4.82;;;2.60;;
60169;SDS011;46042;49.444;6.862;2023-04-28T10:21:38;2.55;;;1.80;;
60169;SDS011;46042;49.444;6.862;2023-04-28T10:24:14;1.83;;;1.60;;
60169;SDS011;46042;49.444;6.862;2023-04-28T10:26:59;5.55;;;2.42;;
60169;SDS011;46042;49.444;6.862;2023-04-28T10:29:29;7.18;;;2.78;;
60169;SDS011;46042;49.444;6.862;2023-04-28T10:32:17;3.42;;;2.58;;
60169;SDS011;46042;49.444;6.862;2023-04-28T10:34:48;4.95;;;2.60;;
60169;SDS011;46042;49.444;6.862;2023-04-28T10:37:15;3.10;;;2.42;;
60169;SDS011;46042;49.444;6.862;2023-04-28T10:40:31;5.20;;;2.10;;
60169;SDS011;46042;49.444;6.862;2023-04-28T10:42:54;3.60;;;1.80;;
60169;SDS011;46042;49.444;6.862;2023-04-28T10:48:52;5.07;;;2.25;;
60169;SDS011;46042;49.444;6.862;2023-04-28T10:56:12;2.70;;;2.00;;
60169;SDS011;46042;49.444;6.862;2023-04-28T10:58:44;2.30;;;1.80;;
60169;SDS011;46042;49.444;6.862;2023-04-28T11:03:50;3.33;;;1.50;;
60169;SDS011;46042;49.444;6.862;2023-04-28T11:06:43;1.73;;;1.63;;
60169;SDS011;46042;49.444;6.862;2023-04-28T11:17:00;7.28;;;1.75;;
60169;SDS011;46042;49.444;6.862;2023-04-28T11:19:30;4.88;;;1.60;;
60169;SDS011;46042;49.444;6.862;2023-04-28T11:22:13;3.17;;;1.60;;
60169;SDS011;46042;49.444;6.862;2023-04-28T11:24:54;2.10;;;1.60;;
60169;SDS011;46042;49.444;6.862;2023-04-28T11:27:23;3.88;;;1.70;;
60169;SDS011;46042;49.444;6.862;2023-04-28T11:29:50;5.50;;;2.05;;
60169;SDS011;46042;49.444;6.862;2023-04-28T11:32:19;3.25;;;2.00;;
60169;SDS011;46042;49.444;6.862;2023-04-28T11:37:25;1.60;;;1.45;;
60169;SDS011;46042;49.444;6.862;2023-04-28T11:39:52;2.17;;;1.80;;
60169;SDS011;46042;49.444;6.862;2023-04-28T11:42:19;2.63;;;1.48;;
60169;SDS011;46042;49.444;6.862;2023-04-28T11:44:50;4.15;;;1.77;;
60169;SDS011;46042;49.444;6.862;2023-04-28T11:47:32;1.73;;;1.58;;
60169;SDS011;46042;49.444;6.862;2023-04-28T11:50:00;3.63;;;1.50;;
60169;SDS011;46042;49.444;6.862;2023-04-28T11:52:28;1.85;;;1.33;;
60169;SDS011;46042;49.444;6.862;2023-04-28T11:54:58;4.57;;;1.60;;
60169;SDS011;46042;49.444;6.862;2023-04-28T11:57:27;3.53;;;1.67;;
60169;SDS011;46042;49.444;6.862;2023-04-28T12:00:10;2.05;;;1.65;;
60169;SDS011;46042;49.444;6.862;2023-04-28T12:02:44;4.03;;;1.83;;
60169;SDS011;46042;49.444;6.862;2023-04-28T12:05:11;1.83;;;1.48;;
60169;SDS011;46042;49.444;6.862;2023-04-28T12:07:41;2.20;;;1.90;;
60169;SDS011;46042;49.444;6.862;2023-04-28T12:10:13;1.50;;;1.40;;
60169;SDS011;46042;49.444;6.862;2023-04-28T12:12:44;1.88;;;1.48;;
60169;SDS011;46042;49.444;6.862;2023-04-28T12:15:18;5.47;;;1.58;;
60169;SDS011;46042;49.444;6.862;2023-04-28T12:17:47;2.88;;;1.20;;
60169;SDS011;46042;49.444;6.862;2023-04-28T12:20:35;4.72;;;2.78;;
60169;SDS011;46042;49.444;6.862;2023-04-28T12:23:03;2.60;;;1.60;;
60169;SDS011;46042;49.444;6.862;2023-04-28T12:25:30;2.47;;;1.98;;
60169;SDS011;46042;49.444;6.862;2023-04-28T12:28:06;2.03;;;1.40;;
60169;SDS011;46042;49.444;6.862;2023-04-28T12:30:34;2.67;;;1.88;;
60169;SDS011;46042;49.444;6.862;2023-04-28T12:33:23;2.70;;;1.85;;
60169;SDS011;46042;49.444;6.862;2023-04-28T12:35:56;3.28;;;1.88;;
60169;SDS011;46042;49.444;6.862;2023-04-28T12:38:23;2.47;;;2.08;;
60169;SDS011;46042;49.444;6.862;2023-04-28T12:40:50;2.33;;;1.70;;
60169;SDS011;46042;49.444;6.862;2023-04-28T12:43:18;2.05;;;1.30;;
60169;SDS011;46042;49.444;6.862;2023-04-28T12:45:46;1.92;;;1.60;;
60169;SDS011;46042;49.444;6.862;2023-04-28T12:48:13;1.58;;;1.40;;
60169;SDS011;46042;49.444;6.862;2023-04-28T12:50:41;3.70;;;2.20;;
60169;SDS011;46042;49.444;6.862;2023-04-28T12:53:08;2.63;;;1.63;;
60169;SDS011;46042;49.444;6.862;2023-04-28T12:55:36;1.45;;;1.35;;
60169;SDS011;46042;49.444;6.862;2023-04-28T12:58:06;2.38;;;1.75;;
60169;SDS011;46042;49.444;6.862;2023-04-28T13:00:33;1.40;;;1.30;;
60169;SDS011;46042;49.444;6.862;2023-04-28T13:03:01;1.75;;;1.30;;
60169;SDS011;46042;49.444;6.862;2023-04-28T13:05:28;2.85;;;1.83;;
60169;SDS011;46042;49.444;6.862;2023-04-28T13:07:56;2.45;;;1.60;;
60169;SDS011;46042;49.444;6.862;2023-04-28T13:10:23;3.00;;;1.40;;
60169;SDS011;46042;49.444;6.862;2023-04-28T13:12:51;1.35;;;1.25;;
60169;SDS011;46042;49.444;6.862;2023-04-28T13:15:18;1.33;;;1.00;;
60169;SDS011;46042;49.444;6.862;2023-04-28T13:17:46;3.17;;;1.75;;
60169;SDS011;46042;49.444;6.862;2023-04-28T13:20:13;4.47;;;2.53;;
60169;SDS011;46042;49.444;6.862;2023-04-28T13:22:40;3.70;;;2.58;;
60169;SDS011;46042;49.444;6.862;2023-04-28T13:25:07;7.97;;;1.90;;
60169;SDS011;46042;49.444;6.862;2023-04-28T13:27:43;2.42;;;1.48;;
60169;SDS011;46042;49.444;6.862;2023-04-28T13:31:08;2.10;;;1.50;;
60169;SDS011;46042;49.444;6.862;2023-04-28T13:34:34;5.38;;;1.85;;
60169;SDS011;46042;49.444;6.862;2023-04-28T13:37:05;2.17;;;1.50;;
60169;SDS011;46042;49.444;6.862;2023-04-28T13:39:34;2.72;;;1.60;;
60169;SDS011;46042;49.444;6.862;2023-04-28T13:42:14;2.65;;;1.52;;
60169;SDS011;46042;49.444;6.862;2023-04-28T13:44:42;5.45;;;1.90;;
60169;SDS011;46042;49.444;6.862;2023-04-28T13:47:09;2.83;;;1.80;;
60169;SDS011;46042;49.444;6.862;2023-04-28T13:49:36;8.48;;;1.63;;
60169;SDS011;46042;49.444;6.862;2023-04-28T13:52:02;2.35;;;1.60;;
60169;SDS011;46042;49.444;6.862;2023-04-28T13:54:30;2.72;;;1.20;;
60169;SDS011;46042;49.444;6.862;2023-04-28T13:56:57;2.15;;;1.77;;
60169;SDS011;46042;49.444;6.862;2023-04-28T13:59:24;1.63;;;1.40;;
60169;SDS011;46042;49.444;6.862;2023-04-28T14:01:51;5.20;;;1.55;;
60169;SDS011;46042;49.444;6.862;2023-04-28T14:04:18;3.15;;;1.48;;
60169;SDS011;46042;49.444;6.862;2023-04-28T14:09:17;3.22;;;1.27;;
60169;SDS011;46042;49.444;6.862;2023-04-28T14:11:44;1.55;;;1.10;;
60169;SDS011;46042;49.444;6.862;2023-04-28T14:14:11;2.83;;;1.27;;
60169;SDS011;46042;49.444;6.862;2023-04-28T14:16:38;2.45;;;1.20;;
60169;SDS011;46042;49.444;6.862;2023-04-28T14:19:04;3.70;;;3.13;;
60169;SDS011;46042;49.444;6.862;2023-04-28T14:21:32;3.35;;;1.30;;
60169;SDS011;46042;49.444;6.862;2023-04-28T14:23:59;4.35;;;2.70;;
60169;SDS011;46042;49.444;6.862;2023-04-28T14:26:26;6.15;;;2.42;;
60169;SDS011;46042;49.444;6.862;2023-04-28T14:28:53;4.20;;;1.85;;
60169;SDS011;46042;49.444;6.862;2023-04-28T14:31:19;3.35;;;1.70;;
60169;SDS011;46042;49.444;6.862;2023-04-28T14:33:46;2.10;;;1.50;;
60169;SDS011;46042;49.444;6.862;2023-04-28T14:36:13;4.53;;;1.40;;
60169;SDS011;46042;49.444;6.862;2023-04-28T14:38:40;2.33;;;1.13;;
60169;SDS011;46042;49.444;6.862;2023-04-28T14:41:06;1.58;;;1.38;;
60169;SDS011;46042;49.444;6.862;2023-04-28T14:43:33;1.10;;;1.00;;
60169;SDS011;46042;49.444;6.862;2023-04-28T14:46:00;2.60;;;1.00;;
60169;SDS011;46042;49.444;6.862;2023-04-28T14:48:26;1.42;;;1.13;;
60169;SDS011;46042;49.444;6.862;2023-04-28T14:50:53;1.92;;;1.15;;
60169;SDS011;46042;49.444;6.862;2023-04-28T14:53:20;2.60;;;1.00;;
60169;SDS011;46042;49.444;6.862;2023-04-28T14:55:46;3.13;;;1.15;;
60169;SDS011;46042;49.444;6.862;2023-04-28T14:58:13;1.20;;;1.10;;
60169;SDS011;46042;49.444;6.862;2023-04-28T15:00:40;3.15;;;1.70;;
60169;SDS011;46042;49.444;6.862;2023-04-28T15:03:07;6.38;;;1.65;;
60169;SDS011;46042;49.444;6.862;2023-04-28T15:05:34;2.00;;;1.50;;
60169;SDS011;46042;49.444;6.862;2023-04-28T15:08:03;5.32;;;2.40;;
60169;SDS011;46042;49.444;6.862;2023-04-28T15:10:31;3.40;;;1.60;;
60169;SDS011;46042;49.444;6.862;2023-04-28T15:13:05;2.38;;;1.40;;
60169;SDS011;46042;49.444;6.862;2023-04-28T15:15:32;4.97;;;1.50;;
60169;SDS011;46042;49.444;6.862;2023-04-28T15:18:01;2.05;;;1.33;;
60169;SDS011;46042;49.444;6.862;2023-04-28T15:20:30;6.88;;;1.67;;
60169;SDS011;46042;49.444;6.862;2023-04-28T15:22:58;3.15;;;2.13;;
60169;SDS011;46042;49.444;6.862;2023-04-28T15:25:25;3.65;;;1.63;;
60169;SDS011;46042;49.444;6.862;2023-04-28T15:27:52;2.05;;;1.70;;
60169;SDS011;46042;49.444;6.862;2023-04-28T15:30:18;3.60;;;1.70;;
60169;SDS011;46042;49.444;6.862;2023-04-28T15:32:45;5.05;;;1.70;;
60169;SDS011;46042;49.444;6.862;2023-04-28T15:35:14;3.40;;;1.67;;
60169;SDS011;46042;49.444;6.862;2023-04-28T15:37:43;3.80;;;1.55;;
60169;SDS011;46042;49.444;6.862;2023-04-28T15:40:18;5.55;;;1.83;;